Kronborg, Nebraska
Current Conditions -  °F | °C
As of 4:35 PM on Monday 24 Nov 2014 (Local Time) from KAUH Reporting Station
Clear Clear  
Wind Chill: -3°   Ceiling: Unl
Heat Index:   Visibility: 10mi
Dew Point: -12°   Wind: 16mph
Humidity: 34%   Direction: 320°NW
Pressure: 29.93"   Gusts: NA
Location:  41.0075°N, 98.0042°W
Report Text: KAUH 242235Z AUTO 32014KT 10SM CLR 03/M12 A2993 RMK AO2 T00261120
Loading
Personal Weather Stations






























Interactive Weather Map New forecast layout! Learn more

10-Day Weather Forecast

Advertisements
Track Severe Weather on mobile